Terminal Aerodrome Forecast
Issued by NWS

Home | Current Version | Previous Version | Text Only | Print | Product List | Glossary On
Versions: 1 2 3 4 5 6 7 8 9 10 11 12 13 14
856
FTUS45 KTFX 181127
TAFGTF
TAF
KGTF 181127Z 1812/1912 23027G42KT P6SM SCT080 BKN150
     FM190000 31010KT P6SM SCT030 OVC050 PROB30 1900/1902 4SM -RASN
      BR SCT020 OVC030
     FM190200 01010KT P6SM SCT015 OVC035 PROB30 1902/1906 4SM -SN BR
      SCT010 OVC025
     FM190600 10008KT 3/4SM -SN BR SCT008 OVC020=

USA.gov is the U.S. government's official web portal to all federal, state and local government web resources and services.